Terminal Aerodrome Forecast
Issued by NWS

Home | Current Version | Previous Version | Text Only | Print | Product List | Glossary On
Versions: 1 2 3 4 5 6 7 8 9 10 11 12 13 14 15 16 17 18 19 20
000
FTUS43 KLSX 161700
TAFUIN
TAF
KUIN 161720Z 1618/1718 30018G28KT P6SM OVC012
     FM162100 30015G24KT P6SM OVC025
     FM170000 30012KT P6SM OVC025
     FM170800 31009KT P6SM BKN200=

USA.gov is the U.S. government's official web portal to all federal, state and local government web resources and services.